sensor_id;sensor_type;location;lat;lon;timestamp;P1;durP1;ratioP1;P2;durP2;ratioP2
76552;SDS011;65395;53.168;18.156;2023-03-12T00:00:08;6.20;;;2.70;;
76552;SDS011;65395;53.168;18.156;2023-03-12T00:02:56;6.30;;;2.80;;
76552;SDS011;65395;53.168;18.156;2023-03-12T00:05:23;6.10;;;2.80;;
76552;SDS011;65395;53.168;18.156;2023-03-12T00:07:51;6.10;;;2.40;;
76552;SDS011;65395;53.168;18.156;2023-03-12T00:10:19;5.80;;;2.50;;
76552;SDS011;65395;53.168;18.156;2023-03-12T00:12:46;7.80;;;2.50;;
76552;SDS011;65395;53.168;18.156;2023-03-12T00:15:13;7.00;;;2.70;;
76552;SDS011;65395;53.168;18.156;2023-03-12T00:17:39;8.30;;;2.70;;
76552;SDS011;65395;53.168;18.156;2023-03-12T00:20:06;6.40;;;2.80;;
76552;SDS011;65395;53.168;18.156;2023-03-12T00:22:33;5.10;;;2.90;;
76552;SDS011;65395;53.168;18.156;2023-03-12T00:25:00;5.30;;;2.30;;
76552;SDS011;65395;53.168;18.156;2023-03-12T00:27:27;5.70;;;2.90;;
76552;SDS011;65395;53.168;18.156;2023-03-12T00:29:54;6.30;;;2.80;;
76552;SDS011;65395;53.168;18.156;2023-03-12T00:32:20;6.40;;;2.90;;
76552;SDS011;65395;53.168;18.156;2023-03-12T00:34:49;12.90;;;2.80;;
76552;SDS011;65395;53.168;18.156;2023-03-12T00:37:18;8.00;;;2.90;;
76552;SDS011;65395;53.168;18.156;2023-03-12T00:39:45;5.80;;;2.70;;
76552;SDS011;65395;53.168;18.156;2023-03-12T00:42:12;7.00;;;2.90;;
76552;SDS011;65395;53.168;18.156;2023-03-12T00:44:39;6.80;;;2.90;;
76552;SDS011;65395;53.168;18.156;2023-03-12T00:47:06;6.70;;;2.80;;
76552;SDS011;65395;53.168;18.156;2023-03-12T00:49:33;5.40;;;2.60;;
76552;SDS011;65395;53.168;18.156;2023-03-12T00:51:59;5.70;;;2.90;;
76552;SDS011;65395;53.168;18.156;2023-03-12T00:54:26;4.90;;;2.80;;
76552;SDS011;65395;53.168;18.156;2023-03-12T00:56:53;6.30;;;2.50;;
76552;SDS011;65395;53.168;18.156;2023-03-12T00:59:19;5.50;;;2.60;;
76552;SDS011;65395;53.168;18.156;2023-03-12T01:01:46;8.10;;;3.00;;
76552;SDS011;65395;53.168;18.156;2023-03-12T01:04:13;6.10;;;3.00;;
76552;SDS011;65395;53.168;18.156;2023-03-12T01:06:41;5.80;;;2.90;;
76552;SDS011;65395;53.168;18.156;2023-03-12T01:09:08;7.20;;;2.90;;
76552;SDS011;65395;53.168;18.156;2023-03-12T01:11:35;6.90;;;2.80;;
76552;SDS011;65395;53.168;18.156;2023-03-12T01:14:03;5.90;;;2.80;;
76552;SDS011;65395;53.168;18.156;2023-03-12T01:16:32;4.60;;;2.40;;
76552;SDS011;65395;53.168;18.156;2023-03-12T01:18:59;7.20;;;3.10;;
76552;SDS011;65395;53.168;18.156;2023-03-12T01:21:27;6.30;;;2.90;;
76552;SDS011;65395;53.168;18.156;2023-03-12T01:23:55;7.50;;;2.60;;
76552;SDS011;65395;53.168;18.156;2023-03-12T01:26:23;12.10;;;3.10;;
76552;SDS011;65395;53.168;18.156;2023-03-12T01:28:50;5.00;;;2.70;;
76552;SDS011;65395;53.168;18.156;2023-03-12T01:31:18;9.60;;;3.30;;
76552;SDS011;65395;53.168;18.156;2023-03-12T01:33:48;9.70;;;3.80;;
76552;SDS011;65395;53.168;18.156;2023-03-12T01:36:21;6.60;;;3.20;;
76552;SDS011;65395;53.168;18.156;2023-03-12T01:38:50;6.90;;;2.80;;
76552;SDS011;65395;53.168;18.156;2023-03-12T01:41:19;6.90;;;3.10;;
76552;SDS011;65395;53.168;18.156;2023-03-12T01:43:47;7.30;;;3.10;;
76552;SDS011;65395;53.168;18.156;2023-03-12T01:46:21;7.30;;;3.00;;
76552;SDS011;65395;53.168;18.156;2023-03-12T01:49:01;6.60;;;2.90;;
76552;SDS011;65395;53.168;18.156;2023-03-12T01:51:37;5.90;;;2.90;;
76552;SDS011;65395;53.168;18.156;2023-03-12T01:54:17;5.90;;;2.90;;
76552;SDS011;65395;53.168;18.156;2023-03-12T01:56:47;6.20;;;2.60;;
76552;SDS011;65395;53.168;18.156;2023-03-12T01:59:19;5.60;;;2.80;;
76552;SDS011;65395;53.168;18.156;2023-03-12T02:01:50;6.80;;;3.50;;
76552;SDS011;65395;53.168;18.156;2023-03-12T02:04:18;6.00;;;2.80;;
76552;SDS011;65395;53.168;18.156;2023-03-12T02:06:50;7.80;;;2.60;;
76552;SDS011;65395;53.168;18.156;2023-03-12T02:09:23;6.50;;;2.50;;
76552;SDS011;65395;53.168;18.156;2023-03-12T02:11:50;9.90;;;2.40;;
76552;SDS011;65395;53.168;18.156;2023-03-12T02:14:19;6.50;;;3.00;;
76552;SDS011;65395;53.168;18.156;2023-03-12T02:16:46;8.20;;;3.20;;
76552;SDS011;65395;53.168;18.156;2023-03-12T02:19:18;6.30;;;2.60;;
76552;SDS011;65395;53.168;18.156;2023-03-12T02:21:57;4.30;;;2.40;;
76552;SDS011;65395;53.168;18.156;2023-03-12T02:27:10;7.90;;;2.70;;
76552;SDS011;65395;53.168;18.156;2023-03-12T02:29:38;5.30;;;2.50;;
76552;SDS011;65395;53.168;18.156;2023-03-12T02:32:08;4.90;;;2.60;;
76552;SDS011;65395;53.168;18.156;2023-03-12T02:34:40;5.80;;;2.40;;
76552;SDS011;65395;53.168;18.156;2023-03-12T02:37:10;4.30;;;2.30;;
76552;SDS011;65395;53.168;18.156;2023-03-12T02:39:37;6.50;;;2.50;;
76552;SDS011;65395;53.168;18.156;2023-03-12T02:42:05;8.00;;;2.50;;
76552;SDS011;65395;53.168;18.156;2023-03-12T02:44:32;5.20;;;2.30;;
76552;SDS011;65395;53.168;18.156;2023-03-12T02:47:01;6.30;;;2.70;;
76552;SDS011;65395;53.168;18.156;2023-03-12T02:49:30;8.80;;;2.50;;
76552;SDS011;65395;53.168;18.156;2023-03-12T02:51:59;5.60;;;2.50;;
76552;SDS011;65395;53.168;18.156;2023-03-12T02:54:27;6.40;;;2.80;;
76552;SDS011;65395;53.168;18.156;2023-03-12T02:56:55;8.30;;;2.50;;
76552;SDS011;65395;53.168;18.156;2023-03-12T02:59:24;5.70;;;2.70;;
76552;SDS011;65395;53.168;18.156;2023-03-12T03:01:54;7.10;;;3.10;;
76552;SDS011;65395;53.168;18.156;2023-03-12T03:04:23;5.20;;;2.40;;
76552;SDS011;65395;53.168;18.156;2023-03-12T03:06:51;3.90;;;2.00;;
76552;SDS011;65395;53.168;18.156;2023-03-12T03:09:18;5.50;;;1.90;;
76552;SDS011;65395;53.168;18.156;2023-03-12T03:11:48;5.90;;;2.00;;
76552;SDS011;65395;53.168;18.156;2023-03-12T03:14:16;2.80;;;1.60;;
76552;SDS011;65395;53.168;18.156;2023-03-12T03:16:45;4.40;;;1.40;;
76552;SDS011;65395;53.168;18.156;2023-03-12T03:19:12;4.30;;;1.30;;
76552;SDS011;65395;53.168;18.156;2023-03-12T03:21:39;4.30;;;1.10;;
76552;SDS011;65395;53.168;18.156;2023-03-12T03:24:06;2.40;;;1.10;;
76552;SDS011;65395;53.168;18.156;2023-03-12T03:26:32;4.30;;;1.10;;
76552;SDS011;65395;53.168;18.156;2023-03-12T03:28:59;2.40;;;1.00;;
76552;SDS011;65395;53.168;18.156;2023-03-12T03:31:26;4.00;;;1.00;;
76552;SDS011;65395;53.168;18.156;2023-03-12T03:33:53;3.60;;;0.80;;
76552;SDS011;65395;53.168;18.156;2023-03-12T03:36:20;3.90;;;0.80;;
76552;SDS011;65395;53.168;18.156;2023-03-12T03:38:56;2.50;;;0.80;;
76552;SDS011;65395;53.168;18.156;2023-03-12T03:41:23;2.40;;;0.80;;
76552;SDS011;65395;53.168;18.156;2023-03-12T03:43:55;2.40;;;1.00;;
76552;SDS011;65395;53.168;18.156;2023-03-12T03:46:24;2.60;;;0.80;;
76552;SDS011;65395;53.168;18.156;2023-03-12T03:48:56;3.00;;;0.70;;
76552;SDS011;65395;53.168;18.156;2023-03-12T03:51:23;2.60;;;0.80;;
76552;SDS011;65395;53.168;18.156;2023-03-12T03:53:53;2.50;;;0.80;;
76552;SDS011;65395;53.168;18.156;2023-03-12T03:56:20;2.60;;;0.60;;
76552;SDS011;65395;53.168;18.156;2023-03-12T03:58:48;1.10;;;0.70;;
76552;SDS011;65395;53.168;18.156;2023-03-12T04:01:16;2.60;;;0.60;;
76552;SDS011;65395;53.168;18.156;2023-03-12T04:03:44;2.60;;;0.90;;
76552;SDS011;65395;53.168;18.156;2023-03-12T04:06:11;3.30;;;0.70;;
76552;SDS011;65395;53.168;18.156;2023-03-12T04:08:38;2.20;;;0.70;;
76552;SDS011;65395;53.168;18.156;2023-03-12T04:11:08;1.80;;;0.50;;
76552;SDS011;65395;53.168;18.156;2023-03-12T04:13:38;2.60;;;0.70;;
76552;SDS011;65395;53.168;18.156;2023-03-12T04:16:06;2.00;;;0.60;;
76552;SDS011;65395;53.168;18.156;2023-03-12T04:18:33;0.80;;;0.40;;
76552;SDS011;65395;53.168;18.156;2023-03-12T04:21:02;2.40;;;0.50;;
76552;SDS011;65395;53.168;18.156;2023-03-12T04:23:30;4.30;;;0.40;;
76552;SDS011;65395;53.168;18.156;2023-03-12T04:25:58;1.30;;;0.40;;
76552;SDS011;65395;53.168;18.156;2023-03-12T04:28:25;2.90;;;0.50;;
76552;SDS011;65395;53.168;18.156;2023-03-12T04:30:56;2.50;;;0.40;;
76552;SDS011;65395;53.168;18.156;2023-03-12T04:33:26;3.30;;;0.50;;
76552;SDS011;65395;53.168;18.156;2023-03-12T04:35:55;2.60;;;0.50;;
76552;SDS011;65395;53.168;18.156;2023-03-12T04:38:23;3.20;;;0.70;;
76552;SDS011;65395;53.168;18.156;2023-03-12T04:41:00;3.00;;;0.40;;
76552;SDS011;65395;53.168;18.156;2023-03-12T04:43:30;1.60;;;0.40;;
76552;SDS011;65395;53.168;18.156;2023-03-12T04:45:58;2.90;;;0.40;;
76552;SDS011;65395;53.168;18.156;2023-03-12T04:48:25;2.00;;;0.50;;
76552;SDS011;65395;53.168;18.156;2023-03-12T04:50:53;1.70;;;0.40;;
76552;SDS011;65395;53.168;18.156;2023-03-12T04:53:21;3.50;;;0.60;;
76552;SDS011;65395;53.168;18.156;2023-03-12T04:55:49;1.50;;;0.50;;
76552;SDS011;65395;53.168;18.156;2023-03-12T04:58:17;3.80;;;0.70;;
76552;SDS011;65395;53.168;18.156;2023-03-12T05:00:45;1.40;;;0.40;;
76552;SDS011;65395;53.168;18.156;2023-03-12T05:03:13;1.40;;;0.40;;
76552;SDS011;65395;53.168;18.156;2023-03-12T05:05:40;0.80;;;0.50;;
76552;SDS011;65395;53.168;18.156;2023-03-12T05:08:08;1.20;;;0.40;;
76552;SDS011;65395;53.168;18.156;2023-03-12T05:10:35;3.40;;;0.70;;
76552;SDS011;65395;53.168;18.156;2023-03-12T05:13:02;1.90;;;0.50;;
76552;SDS011;65395;53.168;18.156;2023-03-12T05:15:29;3.00;;;0.50;;
76552;SDS011;65395;53.168;18.156;2023-03-12T05:17:59;3.20;;;0.60;;
76552;SDS011;65395;53.168;18.156;2023-03-12T05:20:26;2.10;;;0.50;;
76552;SDS011;65395;53.168;18.156;2023-03-12T05:22:53;3.80;;;0.60;;
76552;SDS011;65395;53.168;18.156;2023-03-12T05:25:19;3.60;;;0.60;;
76552;SDS011;65395;53.168;18.156;2023-03-12T05:27:46;2.40;;;0.70;;
76552;SDS011;65395;53.168;18.156;2023-03-12T05:30:13;0.80;;;0.50;;
76552;SDS011;65395;53.168;18.156;2023-03-12T05:32:40;2.20;;;0.70;;
76552;SDS011;65395;53.168;18.156;2023-03-12T05:35:07;2.10;;;0.80;;
76552;SDS011;65395;53.168;18.156;2023-03-12T05:37:35;2.20;;;0.70;;
76552;SDS011;65395;53.168;18.156;2023-03-12T05:40:02;2.30;;;0.80;;
76552;SDS011;65395;53.168;18.156;2023-03-12T05:42:29;4.00;;;1.00;;
76552;SDS011;65395;53.168;18.156;2023-03-12T05:44:56;4.60;;;0.90;;
76552;SDS011;65395;53.168;18.156;2023-03-12T05:47:24;3.80;;;0.90;;
76552;SDS011;65395;53.168;18.156;2023-03-12T05:49:51;3.30;;;0.70;;
76552;SDS011;65395;53.168;18.156;2023-03-12T05:52:18;3.20;;;0.60;;
76552;SDS011;65395;53.168;18.156;2023-03-12T05:54:45;4.60;;;0.60;;
76552;SDS011;65395;53.168;18.156;2023-03-12T05:57:12;4.00;;;0.50;;
76552;SDS011;65395;53.168;18.156;2023-03-12T05:59:39;3.40;;;0.60;;
76552;SDS011;65395;53.168;18.156;2023-03-12T06:02:07;2.40;;;0.70;;
76552;SDS011;65395;53.168;18.156;2023-03-12T06:04:34;3.10;;;0.70;;
76552;SDS011;65395;53.168;18.156;2023-03-12T06:07:02;6.40;;;1.20;;
76552;SDS011;65395;53.168;18.156;2023-03-12T06:09:29;3.60;;;0.70;;
76552;SDS011;65395;53.168;18.156;2023-03-12T06:11:56;2.10;;;0.40;;
76552;SDS011;65395;53.168;18.156;2023-03-12T06:14:23;3.20;;;0.60;;
76552;SDS011;65395;53.168;18.156;2023-03-12T06:16:51;2.80;;;0.50;;
76552;SDS011;65395;53.168;18.156;2023-03-12T06:19:18;4.80;;;0.60;;
76552;SDS011;65395;53.168;18.156;2023-03-12T06:21:47;5.60;;;0.60;;
76552;SDS011;65395;53.168;18.156;2023-03-12T06:24:14;2.70;;;0.50;;
76552;SDS011;65395;53.168;18.156;2023-03-12T06:26:45;5.80;;;0.90;;
76552;SDS011;65395;53.168;18.156;2023-03-12T06:29:12;3.40;;;0.60;;
76552;SDS011;65395;53.168;18.156;2023-03-12T06:31:38;2.70;;;0.60;;
76552;SDS011;65395;53.168;18.156;2023-03-12T06:34:07;3.80;;;0.70;;
76552;SDS011;65395;53.168;18.156;2023-03-12T06:36:35;4.60;;;0.70;;
76552;SDS011;65395;53.168;18.156;2023-03-12T06:39:02;6.90;;;0.70;;
76552;SDS011;65395;53.168;18.156;2023-03-12T06:41:31;1.70;;;0.90;;
76552;SDS011;65395;53.168;18.156;2023-03-12T06:43:59;5.00;;;0.60;;
76552;SDS011;65395;53.168;18.156;2023-03-12T06:46:28;3.70;;;0.60;;
76552;SDS011;65395;53.168;18.156;2023-03-12T06:48:55;3.50;;;0.60;;
76552;SDS011;65395;53.168;18.156;2023-03-12T06:51:22;2.80;;;0.70;;
76552;SDS011;65395;53.168;18.156;2023-03-12T06:53:49;4.60;;;0.60;;
76552;SDS011;65395;53.168;18.156;2023-03-12T06:56:16;3.70;;;0.80;;
76552;SDS011;65395;53.168;18.156;2023-03-12T06:58:43;3.20;;;0.50;;
76552;SDS011;65395;53.168;18.156;2023-03-12T07:01:10;2.50;;;0.40;;
76552;SDS011;65395;53.168;18.156;2023-03-12T07:03:37;3.30;;;0.60;;
76552;SDS011;65395;53.168;18.156;2023-03-12T07:06:04;1.90;;;0.40;;
76552;SDS011;65395;53.168;18.156;2023-03-12T07:08:40;2.10;;;0.50;;
76552;SDS011;65395;53.168;18.156;2023-03-12T07:11:08;2.40;;;0.60;;
76552;SDS011;65395;53.168;18.156;2023-03-12T07:13:35;2.30;;;0.50;;
76552;SDS011;65395;53.168;18.156;2023-03-12T07:16:02;2.40;;;0.40;;
76552;SDS011;65395;53.168;18.156;2023-03-12T07:18:29;1.80;;;0.60;;
76552;SDS011;65395;53.168;18.156;2023-03-12T07:20:56;4.20;;;0.50;;
76552;SDS011;65395;53.168;18.156;2023-03-12T07:23:23;3.60;;;0.60;;
76552;SDS011;65395;53.168;18.156;2023-03-12T07:25:50;4.30;;;0.60;;
76552;SDS011;65395;53.168;18.156;2023-03-12T07:28:18;2.00;;;0.60;;
76552;SDS011;65395;53.168;18.156;2023-03-12T07:30:47;2.50;;;0.50;;
76552;SDS011;65395;53.168;18.156;2023-03-12T07:33:17;4.30;;;0.50;;
76552;SDS011;65395;53.168;18.156;2023-03-12T07:35:46;3.00;;;0.40;;
76552;SDS011;65395;53.168;18.156;2023-03-12T07:38:15;3.40;;;0.40;;
76552;SDS011;65395;53.168;18.156;2023-03-12T07:40:42;7.20;;;0.80;;
76552;SDS011;65395;53.168;18.156;2023-03-12T07:43:08;2.90;;;0.70;;
76552;SDS011;65395;53.168;18.156;2023-03-12T07:45:39;2.50;;;0.50;;
76552;SDS011;65395;53.168;18.156;2023-03-12T07:48:06;2.10;;;0.50;;
76552;SDS011;65395;53.168;18.156;2023-03-12T07:50:34;3.90;;;0.50;;
76552;SDS011;65395;53.168;18.156;2023-03-12T07:53:02;5.60;;;0.60;;
76552;SDS011;65395;53.168;18.156;2023-03-12T07:55:30;4.40;;;0.60;;
76552;SDS011;65395;53.168;18.156;2023-03-12T07:57:58;5.60;;;0.50;;
76552;SDS011;65395;53.168;18.156;2023-03-12T08:00:25;4.00;;;0.70;;
76552;SDS011;65395;53.168;18.156;2023-03-12T08:02:53;2.50;;;0.50;;
76552;SDS011;65395;53.168;18.156;2023-03-12T08:05:20;3.80;;;0.60;;
76552;SDS011;65395;53.168;18.156;2023-03-12T08:07:50;4.30;;;0.60;;
76552;SDS011;65395;53.168;18.156;2023-03-12T08:10:18;3.30;;;0.50;;
76552;SDS011;65395;53.168;18.156;2023-03-12T08:12:46;4.10;;;1.30;;
76552;SDS011;65395;53.168;18.156;2023-03-12T08:15:13;4.90;;;0.80;;
76552;SDS011;65395;53.168;18.156;2023-03-12T08:17:40;4.60;;;1.40;;
76552;SDS011;65395;53.168;18.156;2023-03-12T08:20:08;4.20;;;0.50;;
76552;SDS011;65395;53.168;18.156;2023-03-12T08:22:36;4.50;;;0.50;;
76552;SDS011;65395;53.168;18.156;2023-03-12T08:25:03;2.90;;;0.60;;
76552;SDS011;65395;53.168;18.156;2023-03-12T08:27:31;5.10;;;0.60;;
76552;SDS011;65395;53.168;18.156;2023-03-12T08:29:59;7.20;;;0.60;;
76552;SDS011;65395;53.168;18.156;2023-03-12T08:32:26;3.10;;;0.60;;
76552;SDS011;65395;53.168;18.156;2023-03-12T08:34:53;3.90;;;0.70;;
76552;SDS011;65395;53.168;18.156;2023-03-12T08:37:20;5.90;;;0.60;;
76552;SDS011;65395;53.168;18.156;2023-03-12T08:39:48;5.00;;;0.70;;
76552;SDS011;65395;53.168;18.156;2023-03-12T08:42:15;5.30;;;1.00;;
76552;SDS011;65395;53.168;18.156;2023-03-12T08:44:42;2.80;;;0.60;;
76552;SDS011;65395;53.168;18.156;2023-03-12T08:47:09;8.50;;;1.00;;
76552;SDS011;65395;53.168;18.156;2023-03-12T08:49:36;6.40;;;0.70;;
76552;SDS011;65395;53.168;18.156;2023-03-12T08:52:03;3.60;;;0.60;;
76552;SDS011;65395;53.168;18.156;2023-03-12T08:54:30;2.90;;;0.70;;
76552;SDS011;65395;53.168;18.156;2023-03-12T08:56:57;1.80;;;0.50;;
76552;SDS011;65395;53.168;18.156;2023-03-12T08:59:24;5.10;;;0.80;;
76552;SDS011;65395;53.168;18.156;2023-03-12T09:01:51;6.30;;;0.90;;
76552;SDS011;65395;53.168;18.156;2023-03-12T09:04:18;3.20;;;0.80;;
76552;SDS011;65395;53.168;18.156;2023-03-12T09:06:45;4.90;;;0.70;;
76552;SDS011;65395;53.168;18.156;2023-03-12T09:09:12;8.00;;;1.20;;
76552;SDS011;65395;53.168;18.156;2023-03-12T09:11:39;5.00;;;1.00;;
76552;SDS011;65395;53.168;18.156;2023-03-12T09:14:07;3.40;;;0.80;;
76552;SDS011;65395;53.168;18.156;2023-03-12T09:16:34;3.10;;;0.80;;
76552;SDS011;65395;53.168;18.156;2023-03-12T09:19:00;2.00;;;0.60;;
76552;SDS011;65395;53.168;18.156;2023-03-12T09:21:27;4.50;;;0.70;;
76552;SDS011;65395;53.168;18.156;2023-03-12T09:23:54;3.90;;;0.90;;
76552;SDS011;65395;53.168;18.156;2023-03-12T09:26:21;5.70;;;0.70;;
76552;SDS011;65395;53.168;18.156;2023-03-12T09:28:48;3.50;;;0.90;;
76552;SDS011;65395;53.168;18.156;2023-03-12T09:31:15;5.20;;;1.00;;
76552;SDS011;65395;53.168;18.156;2023-03-12T09:33:42;4.50;;;0.90;;
76552;SDS011;65395;53.168;18.156;2023-03-12T09:36:09;3.60;;;0.80;;
76552;SDS011;65395;53.168;18.156;2023-03-12T09:38:36;2.70;;;0.70;;
76552;SDS011;65395;53.168;18.156;2023-03-12T09:41:04;2.80;;;0.90;;
76552;SDS011;65395;53.168;18.156;2023-03-12T09:43:40;4.10;;;0.80;;
76552;SDS011;65395;53.168;18.156;2023-03-12T09:46:13;4.90;;;0.80;;
76552;SDS011;65395;53.168;18.156;2023-03-12T09:48:45;3.50;;;0.80;;
76552;SDS011;65395;53.168;18.156;2023-03-12T09:51:19;2.40;;;0.70;;
76552;SDS011;65395;53.168;18.156;2023-03-12T09:53:53;3.90;;;0.90;;
76552;SDS011;65395;53.168;18.156;2023-03-12T09:56:23;5.20;;;0.90;;
76552;SDS011;65395;53.168;18.156;2023-03-12T09:58:52;6.30;;;1.60;;
76552;SDS011;65395;53.168;18.156;2023-03-12T10:01:24;3.30;;;1.10;;
76552;SDS011;65395;53.168;18.156;2023-03-12T10:04:13;5.50;;;0.90;;
76552;SDS011;65395;53.168;18.156;2023-03-12T10:06:55;4.20;;;0.80;;
76552;SDS011;65395;53.168;18.156;2023-03-12T10:12:23;4.30;;;0.80;;
76552;SDS011;65395;53.168;18.156;2023-03-12T10:20:55;3.40;;;1.20;;
76552;SDS011;65395;53.168;18.156;2023-03-12T10:23:38;2.90;;;0.50;;
76552;SDS011;65395;53.168;18.156;2023-03-12T10:26:18;2.30;;;0.80;;
76552;SDS011;65395;53.168;18.156;2023-03-12T10:28:52;2.90;;;0.60;;
76552;SDS011;65395;53.168;18.156;2023-03-12T10:31:28;6.10;;;0.80;;
76552;SDS011;65395;53.168;18.156;2023-03-12T10:34:00;5.50;;;0.90;;
76552;SDS011;65395;53.168;18.156;2023-03-12T10:36:37;5.70;;;0.90;;
76552;SDS011;65395;53.168;18.156;2023-03-12T10:39:13;2.40;;;0.70;;
76552;SDS011;65395;53.168;18.156;2023-03-12T10:41:43;2.80;;;0.70;;
76552;SDS011;65395;53.168;18.156;2023-03-12T10:44:14;4.40;;;0.80;;
76552;SDS011;65395;53.168;18.156;2023-03-12T10:46:53;3.60;;;0.70;;
76552;SDS011;65395;53.168;18.156;2023-03-12T10:49:26;2.80;;;0.90;;
76552;SDS011;65395;53.168;18.156;2023-03-12T10:52:00;3.10;;;0.80;;
76552;SDS011;65395;53.168;18.156;2023-03-12T10:54:34;2.70;;;0.70;;
76552;SDS011;65395;53.168;18.156;2023-03-12T10:57:03;3.70;;;0.80;;
76552;SDS011;65395;53.168;18.156;2023-03-12T10:59:32;2.80;;;0.70;;
76552;SDS011;65395;53.168;18.156;2023-03-12T11:02:01;3.30;;;0.80;;
76552;SDS011;65395;53.168;18.156;2023-03-12T11:04:50;6.20;;;0.80;;
76552;SDS011;65395;53.168;18.156;2023-03-12T11:12:39;3.60;;;0.60;;
76552;SDS011;65395;53.168;18.156;2023-03-12T11:15:21;4.70;;;0.90;;
76552;SDS011;65395;53.168;18.156;2023-03-12T11:20:39;3.30;;;0.70;;
76552;SDS011;65395;53.168;18.156;2023-03-12T11:23:12;3.40;;;0.80;;
76552;SDS011;65395;53.168;18.156;2023-03-12T11:25:40;2.90;;;0.80;;
76552;SDS011;65395;53.168;18.156;2023-03-12T11:28:09;1.90;;;0.70;;
76552;SDS011;65395;53.168;18.156;2023-03-12T11:30:43;3.70;;;0.80;;
76552;SDS011;65395;53.168;18.156;2023-03-12T11:33:10;3.50;;;0.80;;
76552;SDS011;65395;53.168;18.156;2023-03-12T11:38:23;1.20;;;0.60;;
76552;SDS011;65395;53.168;18.156;2023-03-12T11:41:05;3.30;;;0.70;;
76552;SDS011;65395;53.168;18.156;2023-03-12T11:43:50;5.00;;;0.90;;
76552;SDS011;65395;53.168;18.156;2023-03-12T11:46:34;3.70;;;0.80;;
76552;SDS011;65395;53.168;18.156;2023-03-12T11:52:08;4.80;;;0.80;;
76552;SDS011;65395;53.168;18.156;2023-03-12T11:54:48;3.80;;;1.00;;
76552;SDS011;65395;53.168;18.156;2023-03-12T11:57:45;3.20;;;0.70;;
76552;SDS011;65395;53.168;18.156;2023-03-12T12:00:38;3.60;;;0.80;;
76552;SDS011;65395;53.168;18.156;2023-03-12T12:03:26;2.10;;;0.60;;
76552;SDS011;65395;53.168;18.156;2023-03-12T12:06:07;2.70;;;0.60;;
76552;SDS011;65395;53.168;18.156;2023-03-12T12:08:50;2.40;;;0.70;;
76552;SDS011;65395;53.168;18.156;2023-03-12T12:11:33;5.10;;;1.00;;
76552;SDS011;65395;53.168;18.156;2023-03-12T12:14:50;4.60;;;0.70;;
76552;SDS011;65395;53.168;18.156;2023-03-12T12:17:16;6.60;;;1.60;;
76552;SDS011;65395;53.168;18.156;2023-03-12T12:19:56;4.00;;;0.80;;
76552;SDS011;65395;53.168;18.156;2023-03-12T12:22:49;3.80;;;0.80;;
76552;SDS011;65395;53.168;18.156;2023-03-12T12:36:44;2.70;;;0.70;;
76552;SDS011;65395;53.168;18.156;2023-03-12T12:39:28;3.60;;;0.90;;
76552;SDS011;65395;53.168;18.156;2023-03-12T12:42:03;3.30;;;0.90;;
76552;SDS011;65395;53.168;18.156;2023-03-12T12:44:34;3.70;;;0.90;;
76552;SDS011;65395;53.168;18.156;2023-03-12T12:47:08;5.70;;;1.00;;
76552;SDS011;65395;53.168;18.156;2023-03-12T12:49:43;2.60;;;1.00;;
76552;SDS011;65395;53.168;18.156;2023-03-12T12:52:16;5.10;;;0.90;;
76552;SDS011;65395;53.168;18.156;2023-03-12T12:57:36;4.50;;;0.80;;
76552;SDS011;65395;53.168;18.156;2023-03-12T13:00:12;3.50;;;1.10;;
76552;SDS011;65395;53.168;18.156;2023-03-12T13:02:59;5.90;;;1.10;;
76552;SDS011;65395;53.168;18.156;2023-03-12T13:05:38;3.20;;;0.90;;
76552;SDS011;65395;53.168;18.156;2023-03-12T13:08:30;4.40;;;1.30;;
76552;SDS011;65395;53.168;18.156;2023-03-12T13:11:04;4.00;;;0.90;;
76552;SDS011;65395;53.168;18.156;2023-03-12T13:13:49;4.90;;;0.90;;
76552;SDS011;65395;53.168;18.156;2023-03-12T13:16:39;3.40;;;0.80;;
76552;SDS011;65395;53.168;18.156;2023-03-12T13:22:03;2.20;;;0.80;;
76552;SDS011;65395;53.168;18.156;2023-03-12T13:24:45;4.00;;;0.90;;
76552;SDS011;65395;53.168;18.156;2023-03-12T13:27:22;3.50;;;0.80;;
76552;SDS011;65395;53.168;18.156;2023-03-12T13:29:53;5.70;;;0.90;;
76552;SDS011;65395;53.168;18.156;2023-03-12T13:38:04;4.20;;;0.80;;
76552;SDS011;65395;53.168;18.156;2023-03-12T13:40:34;3.50;;;0.90;;
76552;SDS011;65395;53.168;18.156;2023-03-12T13:43:11;4.20;;;0.90;;
76552;SDS011;65395;53.168;18.156;2023-03-12T13:48:27;2.40;;;0.70;;
76552;SDS011;65395;53.168;18.156;2023-03-12T13:50:56;2.00;;;0.60;;
76552;SDS011;65395;53.168;18.156;2023-03-12T13:53:26;3.20;;;0.90;;
76552;SDS011;65395;53.168;18.156;2023-03-12T13:56:08;3.30;;;1.00;;
76552;SDS011;65395;53.168;18.156;2023-03-12T13:58:40;3.00;;;0.90;;
76552;SDS011;65395;53.168;18.156;2023-03-12T14:01:14;3.40;;;0.90;;
76552;SDS011;65395;53.168;18.156;2023-03-12T14:03:46;2.70;;;0.80;;
76552;SDS011;65395;53.168;18.156;2023-03-12T14:06:17;4.40;;;1.00;;
76552;SDS011;65395;53.168;18.156;2023-03-12T14:08:56;4.10;;;0.80;;
76552;SDS011;65395;53.168;18.156;2023-03-12T14:17:26;2.60;;;0.90;;
76552;SDS011;65395;53.168;18.156;2023-03-12T14:19:59;4.50;;;0.90;;
76552;SDS011;65395;53.168;18.156;2023-03-12T14:22:28;3.40;;;0.80;;
76552;SDS011;65395;53.168;18.156;2023-03-12T14:25:02;7.00;;;1.40;;
76552;SDS011;65395;53.168;18.156;2023-03-12T14:27:37;3.10;;;0.90;;
76552;SDS011;65395;53.168;18.156;2023-03-12T14:32:48;4.10;;;1.00;;
76552;SDS011;65395;53.168;18.156;2023-03-12T14:35:20;2.30;;;0.80;;
76552;SDS011;65395;53.168;18.156;2023-03-12T14:37:59;4.10;;;0.90;;
76552;SDS011;65395;53.168;18.156;2023-03-12T14:40:37;3.20;;;0.90;;
76552;SDS011;65395;53.168;18.156;2023-03-12T14:48:32;3.50;;;1.00;;
76552;SDS011;65395;53.168;18.156;2023-03-12T14:51:02;3.70;;;1.10;;
76552;SDS011;65395;53.168;18.156;2023-03-12T14:53:32;4.00;;;1.20;;
76552;SDS011;65395;53.168;18.156;2023-03-12T14:56:05;3.30;;;0.90;;
76552;SDS011;65395;53.168;18.156;2023-03-12T14:58:41;3.70;;;1.00;;
76552;SDS011;65395;53.168;18.156;2023-03-12T15:01:12;4.20;;;1.00;;
76552;SDS011;65395;53.168;18.156;2023-03-12T15:03:45;3.60;;;1.20;;
76552;SDS011;65395;53.168;18.156;2023-03-12T15:08:56;6.10;;;1.10;;
76552;SDS011;65395;53.168;18.156;2023-03-12T15:11:25;6.70;;;1.00;;
76552;SDS011;65395;53.168;18.156;2023-03-12T15:13:54;5.00;;;1.00;;
76552;SDS011;65395;53.168;18.156;2023-03-12T15:16:27;2.80;;;1.20;;
76552;SDS011;65395;53.168;18.156;2023-03-12T15:18:54;2.80;;;1.10;;
76552;SDS011;65395;53.168;18.156;2023-03-12T15:21:22;4.60;;;1.30;;
76552;SDS011;65395;53.168;18.156;2023-03-12T15:23:49;3.20;;;1.10;;
76552;SDS011;65395;53.168;18.156;2023-03-12T15:29:02;3.60;;;1.30;;
76552;SDS011;65395;53.168;18.156;2023-03-12T15:31:47;4.70;;;1.20;;
76552;SDS011;65395;53.168;18.156;2023-03-12T15:36:53;4.60;;;1.10;;
76552;SDS011;65395;53.168;18.156;2023-03-12T15:39:29;3.10;;;1.10;;
76552;SDS011;65395;53.168;18.156;2023-03-12T15:41:59;4.10;;;1.00;;
76552;SDS011;65395;53.168;18.156;2023-03-12T15:44:42;4.50;;;1.10;;
76552;SDS011;65395;53.168;18.156;2023-03-12T15:47:12;3.10;;;1.20;;
76552;SDS011;65395;53.168;18.156;2023-03-12T15:49:42;2.50;;;0.90;;
76552;SDS011;65395;53.168;18.156;2023-03-12T15:52:26;6.70;;;1.30;;
76552;SDS011;65395;53.168;18.156;2023-03-12T15:55:05;3.00;;;1.20;;
76552;SDS011;65395;53.168;18.156;2023-03-12T15:57:49;4.10;;;1.10;;
76552;SDS011;65395;53.168;18.156;2023-03-12T16:00:20;4.60;;;1.20;;
76552;SDS011;65395;53.168;18.156;2023-03-12T16:02:59;6.80;;;1.40;;
76552;SDS011;65395;53.168;18.156;2023-03-12T16:05:33;3.70;;;1.20;;